createdAt,value
2019-04-22T00:01:56.998Z,7.25
2019-04-22T00:04:45.029Z,8.10
2019-04-22T00:07:30.638Z,8.40
2019-04-22T00:12:47.343Z,8.18
2019-04-22T00:15:15.217Z,7.55
2019-04-22T00:18:05.480Z,7.50
2019-04-22T00:20:33.621Z,7.37
2019-04-22T00:23:03.773Z,8.03
2019-04-22T00:25:49.344Z,7.55
2019-04-22T00:28:39.339Z,7.97
2019-04-22T00:30:56.162Z,8.53
2019-04-22T00:33:29.054Z,8.73
2019-04-22T00:36:04.331Z,8.75
2019-04-22T00:38:38.669Z,9.03
2019-04-22T00:41:14.947Z,8.63
2019-04-22T00:43:51.101Z,8.50
2019-04-22T00:46:25.117Z,10.32
2019-04-22T00:49:48.977Z,8.58
2019-04-22T00:51:44.907Z,8.53
2019-04-22T00:54:08.705Z,8.15
2019-04-22T00:56:48.226Z,10.32
2019-04-22T00:59:23.365Z,9.85
2019-04-22T01:02:01.930Z,8.73
2019-04-22T01:07:06.073Z,7.85
2019-04-22T01:09:46.532Z,8.10
2019-04-22T01:12:28.437Z,8.15
2019-04-22T01:15:00.394Z,7.53
2019-04-22T01:17:34.384Z,8.45
2019-04-22T01:20:23.899Z,8.63
2019-04-22T01:22:45.456Z,8.23
2019-04-22T01:25:19.136Z,8.28
2019-04-22T01:27:52.823Z,8.65
2019-04-22T01:30:24.412Z,8.63
2019-04-22T01:32:53.916Z,8.58
2019-04-22T01:35:41.280Z,9.45
2019-04-22T01:38:21.823Z,9.03
2019-04-22T01:41:07.214Z,8.90
2019-04-22T01:43:46.208Z,8.68
2019-04-22T01:46:16.387Z,8.35
2019-04-22T01:48:47.726Z,8.73
2019-04-22T01:51:35.462Z,7.58
2019-04-22T01:54:05.175Z,7.47
2019-04-22T01:56:34.920Z,7.65
2019-04-22T01:58:59.356Z,8.03
2019-04-22T02:01:50.992Z,7.55
2019-04-22T02:04:26.898Z,7.03
2019-04-22T02:06:57.542Z,7.97
2019-04-22T02:09:38.621Z,8.38
2019-04-22T02:12:13.132Z,8.45
2019-04-22T02:14:53.910Z,9.45
2019-04-22T02:17:26.718Z,9.75
2019-04-22T02:20:04.057Z,10.35
2019-04-22T02:23:27.112Z,9.88
2019-04-22T02:25:34.621Z,8.68
2019-04-22T02:28:16.993Z,8.95
2019-04-22T02:31:05.037Z,8.80
2019-04-22T02:38:51.867Z,8.73
2019-04-22T02:41:22.740Z,8.23
2019-04-22T02:44:02.086Z,9.03
2019-04-22T02:46:49.406Z,7.65
2019-04-22T02:51:32.759Z,8.98
2019-04-22T02:56:54.287Z,8.13
2019-04-22T02:59:34.974Z,8.40
2019-04-22T03:02:11.988Z,8.53
2019-04-22T03:04:48.527Z,8.63
2019-04-22T03:07:29.328Z,8.15
2019-04-22T03:09:57.871Z,8.10
2019-04-22T03:12:35.259Z,8.73
2019-04-22T03:15:07.852Z,8.28
2019-04-22T03:17:47.347Z,8.38
2019-04-22T03:20:41.947Z,7.97
2019-04-22T03:23:11.605Z,7.58
2019-04-22T03:28:10.322Z,8.15
2019-04-22T03:31:34.430Z,9.13
2019-04-22T03:34:39.391Z,8.50
2019-04-22T03:39:29.812Z,9.28
2019-04-22T03:42:02.522Z,8.98
2019-04-22T03:47:11.574Z,10.60
2019-04-22T03:52:10.809Z,9.20
2019-04-22T03:59:59.383Z,9.78
2019-04-22T04:05:10.814Z,8.28
2019-04-22T04:08:12.111Z,8.08
2019-04-22T04:13:05.520Z,10.15
2019-04-22T04:15:29.929Z,9.25
2019-04-22T04:18:13.873Z,9.48
2019-04-22T04:23:31.248Z,9.15
2019-04-22T04:25:52.686Z,8.50
2019-04-22T04:31:19.506Z,9.40
2019-04-22T04:39:00.657Z,9.83
2019-04-22T04:41:42.677Z,10.35
2019-04-22T04:44:23.481Z,10.98
2019-04-22T04:46:51.966Z,10.15
2019-04-22T04:49:25.946Z,10.98
2019-04-22T04:52:16.615Z,11.85
2019-04-22T04:57:16.938Z,11.40
2019-04-22T05:00:13.238Z,11.43
2019-04-22T05:05:08.317Z,10.48
2019-04-22T05:07:44.306Z,9.38
2019-04-22T05:10:34.882Z,9.73
2019-04-22T05:13:14.478Z,8.80
2019-04-22T05:15:43.175Z,8.85
2019-04-22T05:18:12.547Z,8.75
2019-04-22T05:20:59.733Z,9.13
2019-04-22T05:23:24.916Z,8.40
2019-04-22T05:26:04.216Z,8.38
2019-04-22T05:28:35.315Z,9.33
2019-04-22T05:31:16.181Z,8.60
2019-04-22T05:33:48.231Z,8.75
2019-04-22T05:36:28.339Z,7.47
2019-04-22T05:39:06.064Z,8.75
2019-04-22T05:41:45.988Z,9.30
2019-04-22T05:44:26.311Z,9.28
2019-04-22T05:46:56.245Z,7.75
2019-04-22T05:49:45.876Z,8.65
2019-04-22T05:52:10.791Z,8.35
2019-04-22T05:54:42.778Z,8.45
2019-04-22T05:57:17.907Z,8.75
2019-04-22T06:00:01.601Z,7.72
2019-04-22T06:02:48.751Z,9.00
2019-04-22T06:05:11.902Z,8.35
2019-04-22T06:07:45.699Z,7.92
2019-04-22T06:10:29.342Z,9.43
2019-04-22T06:13:01.059Z,7.55
2019-04-22T06:15:33.906Z,7.83
2019-04-22T06:21:03.751Z,7.85
2019-04-22T06:23:35.948Z,7.85
2019-04-22T06:28:50.087Z,8.28
2019-04-22T06:31:37.228Z,7.25
2019-04-22T06:34:10.311Z,8.40
2019-04-22T06:36:47.701Z,8.60
2019-04-22T06:39:21.139Z,8.88
2019-04-22T06:41:58.927Z,9.05
2019-04-22T06:44:32.309Z,8.63
2019-04-22T06:47:10.560Z,9.63
2019-04-22T06:49:46.640Z,7.85
2019-04-22T06:55:11.492Z,6.97
2019-04-22T06:57:37.008Z,8.55
2019-04-22T07:00:17.423Z,7.60
2019-04-22T07:03:18.972Z,8.23
2019-04-22T07:08:39.387Z,7.53
2019-04-22T07:13:51.756Z,7.80
2019-04-22T07:16:30.206Z,7.12
2019-04-22T07:19:05.649Z,6.17
2019-04-22T07:21:53.111Z,7.55
2019-04-22T07:24:58.286Z,6.08
2019-04-22T07:27:46.029Z,6.60
2019-04-22T07:30:55.546Z,6.42
2019-04-22T07:33:34.883Z,7.03
2019-04-22T07:36:33.498Z,6.95
2019-04-22T07:38:50.742Z,8.23
2019-04-22T07:41:27.076Z,9.00
2019-04-22T07:46:56.592Z,8.18
2019-04-22T07:49:33.974Z,7.80
2019-04-22T07:52:03.675Z,8.80
2019-04-22T07:54:41.422Z,9.20
2019-04-22T07:57:19.925Z,9.40
2019-04-22T07:59:57.172Z,9.88
2019-04-22T08:02:37.476Z,9.90
2019-04-22T08:05:20.681Z,10.08
2019-04-22T08:07:43.489Z,8.73
2019-04-22T08:13:05.443Z,7.78
2019-04-22T08:15:48.601Z,6.65
2019-04-22T08:18:21.944Z,6.12
2019-04-22T08:20:56.801Z,6.67
2019-04-22T08:23:36.792Z,5.15
2019-04-22T08:26:05.479Z,4.25
2019-04-22T08:28:53.303Z,4.42
2019-04-22T08:34:01.924Z,4.80
2019-04-22T08:36:50.781Z,6.65
2019-04-22T08:39:18.870Z,5.17
2019-04-22T08:41:43.774Z,5.03
2019-04-22T08:47:11.206Z,5.87
2019-04-22T08:49:50.493Z,6.28
2019-04-22T08:54:57.522Z,5.55
2019-04-22T08:57:40.725Z,5.78
2019-04-22T09:00:03.975Z,5.97
2019-04-22T09:02:41.613Z,8.03
2019-04-22T09:05:22.815Z,7.90
2019-04-22T09:07:49.800Z,8.03
2019-04-22T09:10:36.182Z,8.23
2019-04-22T09:15:34.355Z,10.80
2019-04-22T09:18:17.236Z,9.15
2019-04-22T09:21:04.733Z,9.60
2019-04-22T09:23:32.331Z,9.00
2019-04-22T09:26:02.936Z,8.88
2019-04-22T09:28:48.778Z,10.15
2019-04-22T09:31:11.458Z,12.55
2019-04-22T09:33:43.053Z,9.48
2019-04-22T09:36:29.034Z,12.90
2019-04-22T09:39:12.138Z,13.20
2019-04-22T09:44:12.885Z,11.78
2019-04-22T09:49:51.932Z,11.50
2019-04-22T09:52:22.486Z,5.20
2019-04-22T09:55:06.084Z,7.50
2019-04-22T09:57:43.166Z,16.80
2019-04-22T10:00:15.512Z,4.65
2019-04-22T10:02:55.432Z,5.87
2019-04-22T10:05:28.895Z,6.75
2019-04-22T10:09:02.248Z,8.18
2019-04-22T10:12:32.512Z,8.10
2019-04-22T10:15:23.361Z,5.92
2019-04-22T10:17:57.936Z,5.03
2019-04-22T10:20:38.762Z,6.33
2019-04-22T10:23:17.656Z,7.33
2019-04-22T10:25:54.447Z,8.10
2019-04-22T10:28:32.774Z,6.92
2019-04-22T10:31:21.877Z,6.67
2019-04-22T10:33:30.883Z,4.50
2019-04-22T10:35:51.816Z,4.92
2019-04-22T10:38:28.385Z,5.08
2019-04-22T10:41:02.795Z,4.90
2019-04-22T10:43:45.270Z,5.47
2019-04-22T10:46:19.871Z,5.62
2019-04-22T10:48:54.655Z,3.70
2019-04-22T10:51:40.434Z,4.83
2019-04-22T10:54:13.876Z,4.70
2019-04-22T10:56:48.784Z,6.08
2019-04-22T10:59:24.689Z,4.50
2019-04-22T11:02:01.368Z,5.58
2019-04-22T11:04:38.611Z,4.70
2019-04-22T11:07:15.380Z,4.55
2019-04-22T11:09:59.242Z,3.98
2019-04-22T11:12:29.977Z,4.33
2019-04-22T11:15:28.572Z,6.12
2019-04-22T11:18:31.631Z,4.90
2019-04-22T11:22:03.748Z,5.05
2019-04-22T11:24:30.701Z,5.20
2019-04-22T11:27:05.318Z,4.58
2019-04-22T11:30:07.999Z,5.05
2019-04-22T11:33:20.632Z,4.70
2019-04-22T11:36:30.622Z,4.78
2019-04-22T11:39:42.785Z,5.70
2019-04-22T11:42:41.525Z,5.05
2019-04-22T11:45:47.249Z,6.28
2019-04-22T11:48:26.924Z,5.78
2019-04-22T11:51:00.298Z,6.12
2019-04-22T11:53:34.616Z,5.50
2019-04-22T11:56:32.527Z,5.90
2019-04-22T11:59:36.313Z,6.05
2019-04-22T12:02:42.929Z,6.92
2019-04-22T12:05:21.543Z,5.55
2019-04-22T12:07:55.261Z,6.12
2019-04-22T12:10:36.631Z,5.47
2019-04-22T12:13:04.422Z,5.47
2019-04-22T12:15:37.676Z,5.58
2019-04-22T12:18:13.072Z,6.37
2019-04-22T12:20:47.444Z,5.70
2019-04-22T12:23:21.169Z,6.87
2019-04-22T12:26:04.148Z,6.62
2019-04-22T12:28:33.077Z,5.85
2019-04-22T12:31:37.835Z,6.47
2019-04-22T12:34:44.351Z,5.50
2019-04-22T12:37:52.895Z,6.17
2019-04-22T12:40:30.107Z,6.83
2019-04-22T12:42:55.483Z,5.47
2019-04-22T12:45:34.201Z,6.35
2019-04-22T12:48:10.255Z,6.40
2019-04-22T12:50:52.719Z,6.08
2019-04-22T12:53:28.082Z,6.22
2019-04-22T12:56:02.913Z,5.80
2019-04-22T12:58:37.832Z,5.25
2019-04-22T13:01:12.824Z,5.37
2019-04-22T13:03:46.571Z,8.28
2019-04-22T13:06:19.922Z,4.80
2019-04-22T13:08:54.482Z,4.90
2019-04-22T13:11:32.229Z,5.08
2019-04-22T13:14:04.960Z,4.92
2019-04-22T13:16:40.733Z,5.20
2019-04-22T13:19:19.353Z,4.65
2019-04-22T13:21:54.427Z,4.47
2019-04-22T13:24:28.119Z,4.95
2019-04-22T13:27:01.389Z,4.70
2019-04-22T13:29:35.079Z,11.80
2019-04-22T13:32:08.985Z,5.17
2019-04-22T13:34:49.194Z,5.00
2019-04-22T13:37:19.212Z,4.15
2019-04-22T13:39:52.920Z,4.45
2019-04-22T13:42:27.540Z,4.10
2019-04-22T13:45:01.969Z,4.40
2019-04-22T13:47:55.754Z,3.95
2019-04-22T13:50:49.466Z,4.50
2019-04-22T13:53:28.877Z,5.37
2019-04-22T13:58:12.381Z,5.30
2019-04-22T14:00:34.439Z,5.03
2019-04-22T14:03:29.013Z,4.35
2019-04-22T14:06:02.716Z,5.40
2019-04-22T14:08:37.560Z,4.83
2019-04-22T14:11:23.369Z,5.03
2019-04-22T14:13:46.327Z,4.65
2019-04-22T14:16:22.706Z,5.40
2019-04-22T14:18:56.106Z,5.20
2019-04-22T14:21:30.606Z,6.08
2019-04-22T14:24:04.931Z,6.00
2019-04-22T14:26:52.403Z,5.60
2019-04-22T14:29:17.495Z,5.10
2019-04-22T14:32:02.871Z,6.10
2019-04-22T14:34:26.924Z,6.33
2019-04-22T14:37:11.882Z,5.42
2019-04-22T14:39:51.690Z,5.22
2019-04-22T14:42:44.028Z,5.12
2019-04-22T14:48:02.701Z,5.45
2019-04-22T14:50:34.081Z,5.37
2019-04-22T14:53:08.205Z,4.92
2019-04-22T14:55:27.480Z,5.00
2019-04-22T14:57:59.144Z,5.55
2019-04-22T15:00:33.945Z,5.25
2019-04-22T15:03:08.198Z,5.17
2019-04-22T15:05:42.018Z,4.30
2019-04-22T15:08:15.515Z,7.00
2019-04-22T15:10:49.725Z,5.30
2019-04-22T15:13:23.414Z,4.05
2019-04-22T15:16:21.077Z,4.33
2019-04-22T15:19:07.744Z,4.72
2019-04-22T15:21:42.931Z,4.80
2019-04-22T15:24:27.566Z,5.12
2019-04-22T15:27:04.561Z,4.92
2019-04-22T15:29:39.081Z,5.35
2019-04-22T15:32:13.537Z,5.37
2019-04-22T15:34:47.113Z,4.85
2019-04-22T15:37:22.209Z,15.45
2019-04-22T15:39:56.799Z,4.70
2019-04-22T15:42:35.584Z,4.62
2019-04-22T15:45:08.441Z,4.67
2019-04-22T15:47:41.809Z,5.17
2019-04-22T15:50:16.217Z,5.65
2019-04-22T15:52:53.775Z,5.87
2019-04-22T15:55:26.800Z,5.15
2019-04-22T15:58:01.610Z,5.08
2019-04-22T16:00:44.445Z,6.00
2019-04-22T16:03:12.493Z,5.12
2019-04-22T16:05:46.122Z,4.58
2019-04-22T16:08:21.151Z,4.22
2019-04-22T16:10:55.867Z,5.03
2019-04-22T16:13:32.402Z,5.35
2019-04-22T16:16:04.795Z,5.60
2019-04-22T16:18:38.211Z,5.50
2019-04-22T16:21:13.090Z,4.87
2019-04-22T16:23:56.722Z,5.28
2019-04-22T16:27:06.950Z,5.20
2019-04-22T16:29:41.210Z,5.53
2019-04-22T16:32:15.641Z,5.33
2019-04-22T16:34:49.922Z,5.33
2019-04-22T16:37:25.070Z,6.60
2019-04-22T16:39:58.889Z,5.83
2019-04-22T16:42:41.307Z,7.53
2019-04-22T16:45:09.453Z,8.35
2019-04-22T16:47:43.978Z,7.25
2019-04-22T16:50:18.576Z,7.58
2019-04-22T16:52:52.399Z,8.60
2019-04-22T16:55:26.559Z,9.03
2019-04-22T16:58:01.041Z,7.85
2019-04-22T17:00:34.563Z,6.47
2019-04-22T17:03:31.196Z,6.80
2019-04-22T17:06:14.424Z,6.42
2019-04-22T17:08:48.677Z,7.92
2019-04-22T17:11:22.255Z,6.72
2019-04-22T17:13:57.294Z,7.58
2019-04-22T17:16:56.755Z,7.30
2019-04-22T17:19:59.627Z,8.30
2019-04-22T17:23:13.821Z,8.40
2019-04-22T17:25:52.495Z,7.62
2019-04-22T17:28:25.967Z,8.00
2019-04-22T17:31:01.909Z,7.47
2019-04-22T17:33:37.150Z,8.68
2019-04-22T17:36:12.081Z,8.73
2019-04-22T17:38:56.480Z,8.43
2019-04-22T17:41:32.515Z,10.63
2019-04-22T17:44:25.060Z,9.98
2019-04-22T17:46:51.018Z,10.85
2019-04-22T17:49:50.465Z,12.90
2019-04-22T17:54:51.622Z,11.57
2019-04-22T17:57:27.973Z,13.25
2019-04-22T18:00:06.748Z,12.07
2019-04-22T18:02:32.638Z,12.15
2019-04-22T18:05:02.005Z,13.80
2019-04-22T18:07:49.309Z,13.22
2019-04-22T18:10:32.445Z,13.72
2019-04-22T18:13:08.838Z,11.08
2019-04-22T18:15:40.952Z,11.00
2019-04-22T18:18:18.615Z,12.50
2019-04-22T18:20:48.907Z,10.32
2019-04-22T18:23:12.701Z,11.12
2019-04-22T18:26:01.656Z,10.80
2019-04-22T18:28:42.172Z,11.80
2019-04-22T18:31:07.700Z,13.75
2019-04-22T18:33:43.303Z,13.93
2019-04-22T18:36:19.854Z,12.33
2019-04-22T18:41:30.881Z,9.60
2019-04-22T18:44:11.388Z,10.93
2019-04-22T18:46:40.660Z,11.08
2019-04-22T18:49:16.548Z,12.70
2019-04-22T18:52:10.427Z,17.77
2019-04-22T18:54:56.895Z,20.32
2019-04-22T18:57:41.175Z,17.23
2019-04-22T19:00:07.076Z,21.15
2019-04-22T19:02:49.491Z,22.98
2019-04-22T19:05:28.169Z,20.65
2019-04-22T19:08:18.697Z,10.18
2019-04-22T19:10:57.712Z,9.03
2019-04-22T19:16:12.708Z,8.30
2019-04-22T19:18:39.315Z,7.72
2019-04-22T19:21:12.454Z,7.45
2019-04-22T19:24:01.533Z,7.65
2019-04-22T19:26:55.922Z,9.28
2019-04-22T19:29:21.988Z,7.90
2019-04-22T19:31:56.852Z,8.75
2019-04-22T19:34:32.267Z,7.15
2019-04-22T19:37:10.920Z,7.08
2019-04-22T19:39:52.597Z,7.40
2019-04-22T19:42:25.556Z,6.87
2019-04-22T19:44:55.273Z,6.78
2019-04-22T19:47:38.925Z,7.65
2019-04-22T19:52:44.686Z,7.75
2019-04-22T19:55:23.850Z,6.75
2019-04-22T19:57:57.340Z,8.13
2019-04-22T20:00:41.786Z,7.42
2019-04-22T20:03:48.321Z,8.23
2019-04-22T20:06:28.668Z,8.03
2019-04-22T20:09:06.670Z,8.90
2019-04-22T20:11:41.327Z,9.48
2019-04-22T20:14:12.623Z,8.85
2019-04-22T20:16:46.599Z,10.35
2019-04-22T20:19:33.795Z,9.00
2019-04-22T20:22:03.405Z,10.38
2019-04-22T20:24:22.580Z,10.20
2019-04-22T20:27:16.359Z,10.60
2019-04-22T20:29:47.834Z,10.28
2019-04-22T20:32:22.119Z,10.60
2019-04-22T20:34:57.658Z,11.70
2019-04-22T20:37:35.540Z,11.08
2019-04-22T20:40:09.137Z,12.30
2019-04-22T20:42:48.976Z,13.05
2019-04-22T20:45:15.211Z,12.33
2019-04-22T20:47:43.987Z,12.75
2019-04-22T20:50:32.893Z,12.30
2019-04-22T20:53:08.586Z,12.55
2019-04-22T20:55:36.877Z,14.65
2019-04-22T20:58:12.189Z,14.43
2019-04-22T21:00:40.269Z,13.28
2019-04-22T21:03:15.924Z,12.45
2019-04-22T21:05:49.221Z,13.60
2019-04-22T21:08:38.595Z,12.53
2019-04-22T21:11:04.474Z,12.78
2019-04-22T21:13:46.615Z,12.58
2019-04-22T21:16:22.252Z,13.03
2019-04-22T21:18:47.271Z,13.80
2019-04-22T21:21:31.682Z,13.20
2019-04-22T21:23:58.376Z,12.37
2019-04-22T21:26:42.669Z,14.47
2019-04-22T21:29:13.068Z,13.13
2019-04-22T21:31:59.868Z,12.75
2019-04-22T21:34:26.374Z,14.30
2019-04-22T21:37:12.098Z,13.53
2019-04-22T21:39:36.379Z,11.65
2019-04-22T21:42:14.299Z,14.95
2019-04-22T21:44:44.105Z,13.62
2019-04-22T21:47:28.745Z,13.78
2019-04-22T21:50:19.668Z,14.68
2019-04-22T21:52:33.519Z,14.63
2019-04-22T21:55:14.398Z,13.98
2019-04-22T21:57:57.230Z,15.40
2019-04-22T22:03:17.859Z,15.18
2019-04-22T22:05:37.628Z,13.13
2019-04-22T22:08:23.116Z,14.80
2019-04-22T22:10:52.642Z,14.03
2019-04-22T22:13:32.013Z,14.55
2019-04-22T22:16:04.563Z,14.20
2019-04-22T22:18:30.033Z,14.10
2019-04-22T22:21:33.108Z,14.50
2019-04-22T22:23:52.033Z,14.87
2019-04-22T22:26:18.605Z,14.60
2019-04-22T22:29:05.407Z,15.08
2019-04-22T22:31:41.309Z,16.77
2019-04-22T22:34:09.783Z,14.28
2019-04-22T22:36:36.661Z,16.00
2019-04-22T22:39:08.708Z,14.65
2019-04-22T22:41:34.151Z,14.28
2019-04-22T22:44:17.629Z,14.90
2019-04-22T22:46:58.897Z,15.78
2019-04-22T22:49:40.585Z,16.05
2019-04-22T22:52:40.854Z,14.85
2019-04-22T22:54:46.231Z,15.95
2019-04-22T22:57:27.746Z,15.03
2019-04-22T22:59:58.642Z,15.63
2019-04-22T23:02:59.568Z,15.13
2019-04-22T23:05:16.893Z,16.25
2019-04-22T23:07:55.440Z,15.58
2019-04-22T23:10:25.335Z,16.27
2019-04-22T23:13:02.712Z,14.63
2019-04-22T23:15:27.563Z,15.50
2019-04-22T23:17:54.132Z,16.37
2019-04-22T23:20:36.085Z,16.07
2019-04-22T23:23:29.749Z,14.55
2019-04-22T23:26:07.178Z,16.52
2019-04-22T23:29:02.428Z,14.18
2019-04-22T23:31:39.976Z,15.75
2019-04-22T23:34:24.962Z,15.80
2019-04-22T23:37:21.905Z,13.65
2019-04-22T23:40:09.726Z,14.85
2019-04-22T23:42:33.706Z,12.85
2019-04-22T23:45:13.919Z,13.10
2019-04-22T23:47:39.057Z,14.90
2019-04-22T23:50:29.616Z,14.53
2019-04-22T23:53:00.629Z,15.18
2019-04-22T23:55:36.977Z,13.80
2019-04-22T23:58:07.937Z,14.43
